sensor_id;sensor_type;location;lat;lon;timestamp;temperature;humidity
37322;DHT22;23697;48.684;9.032;2023-05-07T00:01:27;12.50;82.60
37322;DHT22;23697;48.684;9.032;2023-05-07T00:03:55;12.40;82.70
37322;DHT22;23697;48.684;9.032;2023-05-07T00:06:21;12.40;82.80
37322;DHT22;23697;48.684;9.032;2023-05-07T00:08:48;12.40;82.80
37322;DHT22;23697;48.684;9.032;2023-05-07T00:11:15;12.30;82.80
37322;DHT22;23697;48.684;9.032;2023-05-07T00:13:48;12.30;83.00
37322;DHT22;23697;48.684;9.032;2023-05-07T00:16:15;12.30;83.10
37322;DHT22;23697;48.684;9.032;2023-05-07T00:18:48;12.30;83.20
37322;DHT22;23697;48.684;9.032;2023-05-07T00:21:45;12.40;83.20
37322;DHT22;23697;48.684;9.032;2023-05-07T00:24:55;12.30;83.30
37322;DHT22;23697;48.684;9.032;2023-05-07T00:27:25;12.30;83.40
37322;DHT22;23697;48.684;9.032;2023-05-07T00:30:02;12.30;83.40
37322;DHT22;23697;48.684;9.032;2023-05-07T00:35:55;12.30;83.60
37322;DHT22;23697;48.684;9.032;2023-05-07T00:38:37;12.20;83.50
37322;DHT22;23697;48.684;9.032;2023-05-07T00:41:05;12.20;83.80
37322;DHT22;23697;48.684;9.032;2023-05-07T00:43:32;12.20;83.80
37322;DHT22;23697;48.684;9.032;2023-05-07T00:45:58;12.20;83.90
37322;DHT22;23697;48.684;9.032;2023-05-07T00:48:25;12.20;83.90
37322;DHT22;23697;48.684;9.032;2023-05-07T00:50:54;12.10;84.00
37322;DHT22;23697;48.684;9.032;2023-05-07T00:53:22;12.10;84.00
37322;DHT22;23697;48.684;9.032;2023-05-07T00:55:49;12.10;84.00
37322;DHT22;23697;48.684;9.032;2023-05-07T00:58:18;12.10;84.10
37322;DHT22;23697;48.684;9.032;2023-05-07T01:00:46;12.10;84.20
37322;DHT22;23697;48.684;9.032;2023-05-07T01:03:12;12.10;84.20
37322;DHT22;23697;48.684;9.032;2023-05-07T01:05:39;12.10;84.30
37322;DHT22;23697;48.684;9.032;2023-05-07T01:08:08;12.10;84.30
37322;DHT22;23697;48.684;9.032;2023-05-07T01:10:35;12.10;84.40
37322;DHT22;23697;48.684;9.032;2023-05-07T01:13:02;12.10;84.30
37322;DHT22;23697;48.684;9.032;2023-05-07T01:15:29;12.10;84.40
37322;DHT22;23697;48.684;9.032;2023-05-07T01:17:58;12.10;84.40
37322;DHT22;23697;48.684;9.032;2023-05-07T01:20:25;12.10;84.50
37322;DHT22;23697;48.684;9.032;2023-05-07T01:22:54;12.10;84.50
37322;DHT22;23697;48.684;9.032;2023-05-07T01:25:21;12.10;84.50
37322;DHT22;23697;48.684;9.032;2023-05-07T01:27:48;12.00;84.50
37322;DHT22;23697;48.684;9.032;2023-05-07T01:30:15;12.00;84.50
37322;DHT22;23697;48.684;9.032;2023-05-07T01:32:50;12.00;84.60
37322;DHT22;23697;48.684;9.032;2023-05-07T01:35:19;12.00;84.60
37322;DHT22;23697;48.684;9.032;2023-05-07T01:37:49;11.90;84.70
37322;DHT22;23697;48.684;9.032;2023-05-07T01:40:17;11.90;84.80
37322;DHT22;23697;48.684;9.032;2023-05-07T01:42:44;11.90;84.80
37322;DHT22;23697;48.684;9.032;2023-05-07T01:45:13;11.90;84.80
37322;DHT22;23697;48.684;9.032;2023-05-07T01:47:41;12.00;84.80
37322;DHT22;23697;48.684;9.032;2023-05-07T01:50:08;11.90;84.80
37322;DHT22;23697;48.684;9.032;2023-05-07T01:52:36;12.00;84.90
37322;DHT22;23697;48.684;9.032;2023-05-07T01:55:04;11.90;84.90
37322;DHT22;23697;48.684;9.032;2023-05-07T01:57:32;11.80;84.90
37322;DHT22;23697;48.684;9.032;2023-05-07T01:59:59;11.80;85.00
37322;DHT22;23697;48.684;9.032;2023-05-07T02:02:26;11.80;85.00
37322;DHT22;23697;48.684;9.032;2023-05-07T02:04:53;11.70;85.10
37322;DHT22;23697;48.684;9.032;2023-05-07T02:07:19;11.80;85.20
37322;DHT22;23697;48.684;9.032;2023-05-07T02:09:46;11.70;85.20
37322;DHT22;23697;48.684;9.032;2023-05-07T02:12:13;11.70;85.20
37322;DHT22;23697;48.684;9.032;2023-05-07T02:14:41;11.70;85.30
37322;DHT22;23697;48.684;9.032;2023-05-07T02:17:08;11.70;85.30
37322;DHT22;23697;48.684;9.032;2023-05-07T02:22:38;11.60;85.40
37322;DHT22;23697;48.684;9.032;2023-05-07T02:25:05;11.60;85.40
37322;DHT22;23697;48.684;9.032;2023-05-07T02:27:32;11.60;85.40
37322;DHT22;23697;48.684;9.032;2023-05-07T02:30:00;11.60;85.50
37322;DHT22;23697;48.684;9.032;2023-05-07T02:32:26;11.60;85.60
37322;DHT22;23697;48.684;9.032;2023-05-07T02:34:55;11.60;85.50
37322;DHT22;23697;48.684;9.032;2023-05-07T02:37:22;11.50;85.50
37322;DHT22;23697;48.684;9.032;2023-05-07T02:39:48;11.50;85.60
37322;DHT22;23697;48.684;9.032;2023-05-07T02:42:15;11.40;85.70
37322;DHT22;23697;48.684;9.032;2023-05-07T02:44:42;11.40;85.80
37322;DHT22;23697;48.684;9.032;2023-05-07T02:47:10;11.40;85.80
37322;DHT22;23697;48.684;9.032;2023-05-07T02:49:38;11.40;85.90
37322;DHT22;23697;48.684;9.032;2023-05-07T02:52:05;11.30;85.90
37322;DHT22;23697;48.684;9.032;2023-05-07T02:54:32;11.30;86.00
37322;DHT22;23697;48.684;9.032;2023-05-07T02:56:58;11.30;86.00
37322;DHT22;23697;48.684;9.032;2023-05-07T02:59:26;11.30;86.00
37322;DHT22;23697;48.684;9.032;2023-05-07T03:01:52;11.20;86.00
37322;DHT22;23697;48.684;9.032;2023-05-07T03:04:21;11.20;86.00
37322;DHT22;23697;48.684;9.032;2023-05-07T03:06:47;11.10;86.10
37322;DHT22;23697;48.684;9.032;2023-05-07T03:09:14;11.10;86.10
37322;DHT22;23697;48.684;9.032;2023-05-07T03:11:41;11.10;86.20
37322;DHT22;23697;48.684;9.032;2023-05-07T03:14:08;11.10;86.10
37322;DHT22;23697;48.684;9.032;2023-05-07T03:16:35;11.10;86.10
37322;DHT22;23697;48.684;9.032;2023-05-07T03:19:09;11.10;86.00
37322;DHT22;23697;48.684;9.032;2023-05-07T03:21:45;11.00;86.00
37322;DHT22;23697;48.684;9.032;2023-05-07T03:24:12;10.90;86.20
37322;DHT22;23697;48.684;9.032;2023-05-07T03:26:41;10.90;86.20
37322;DHT22;23697;48.684;9.032;2023-05-07T03:29:08;11.00;86.30
37322;DHT22;23697;48.684;9.032;2023-05-07T03:31:34;11.00;86.30
37322;DHT22;23697;48.684;9.032;2023-05-07T03:34:02;11.00;86.40
37322;DHT22;23697;48.684;9.032;2023-05-07T03:36:48;10.90;86.40
37322;DHT22;23697;48.684;9.032;2023-05-07T03:39:21;10.80;86.40
37322;DHT22;23697;48.684;9.032;2023-05-07T03:41:50;10.90;86.50
37322;DHT22;23697;48.684;9.032;2023-05-07T03:44:17;10.90;86.50
37322;DHT22;23697;48.684;9.032;2023-05-07T03:46:44;10.90;86.50
37322;DHT22;23697;48.684;9.032;2023-05-07T03:49:13;10.90;86.50
37322;DHT22;23697;48.684;9.032;2023-05-07T03:52:01;10.90;86.50
37322;DHT22;23697;48.684;9.032;2023-05-07T03:55:07;10.80;86.50
37322;DHT22;23697;48.684;9.032;2023-05-07T03:57:35;10.80;86.50
37322;DHT22;23697;48.684;9.032;2023-05-07T04:00:02;10.70;86.40
37322;DHT22;23697;48.684;9.032;2023-05-07T04:02:38;10.70;86.50
37322;DHT22;23697;48.684;9.032;2023-05-07T04:05:05;10.70;86.60
37322;DHT22;23697;48.684;9.032;2023-05-07T04:10:26;10.60;86.70
37322;DHT22;23697;48.684;9.032;2023-05-07T04:12:53;10.60;86.60
37322;DHT22;23697;48.684;9.032;2023-05-07T04:15:35;10.60;86.70
37322;DHT22;23697;48.684;9.032;2023-05-07T04:18:02;10.60;86.60
37322;DHT22;23697;48.684;9.032;2023-05-07T04:20:29;10.60;86.60
37322;DHT22;23697;48.684;9.032;2023-05-07T04:22:58;10.60;86.60
37322;DHT22;23697;48.684;9.032;2023-05-07T04:25:37;10.60;86.70
37322;DHT22;23697;48.684;9.032;2023-05-07T04:28:04;10.60;86.70
37322;DHT22;23697;48.684;9.032;2023-05-07T04:30:31;10.60;86.80
37322;DHT22;23697;48.684;9.032;2023-05-07T04:32:57;10.60;86.80
37322;DHT22;23697;48.684;9.032;2023-05-07T04:35:24;10.60;86.80
37322;DHT22;23697;48.684;9.032;2023-05-07T04:37:51;10.60;86.70
37322;DHT22;23697;48.684;9.032;2023-05-07T04:40:18;10.60;86.70
37322;DHT22;23697;48.684;9.032;2023-05-07T04:42:46;10.60;86.80
37322;DHT22;23697;48.684;9.032;2023-05-07T04:45:13;10.60;86.80
37322;DHT22;23697;48.684;9.032;2023-05-07T04:47:40;10.60;86.80
37322;DHT22;23697;48.684;9.032;2023-05-07T04:50:07;10.50;86.80
37322;DHT22;23697;48.684;9.032;2023-05-07T04:52:34;10.60;86.90
37322;DHT22;23697;48.684;9.032;2023-05-07T04:55:01;10.60;86.90
37322;DHT22;23697;48.684;9.032;2023-05-07T04:57:33;10.60;87.00
37322;DHT22;23697;48.684;9.032;2023-05-07T05:00:01;10.60;87.00
37322;DHT22;23697;48.684;9.032;2023-05-07T05:02:29;10.70;87.00
37322;DHT22;23697;48.684;9.032;2023-05-07T05:04:56;10.70;87.00
37322;DHT22;23697;48.684;9.032;2023-05-07T05:07:24;10.80;87.10
37322;DHT22;23697;48.684;9.032;2023-05-07T05:09:50;10.80;87.00
37322;DHT22;23697;48.684;9.032;2023-05-07T05:12:17;10.90;87.00
37322;DHT22;23697;48.684;9.032;2023-05-07T05:14:44;10.90;87.10
37322;DHT22;23697;48.684;9.032;2023-05-07T05:17:12;11.00;87.10
37322;DHT22;23697;48.684;9.032;2023-05-07T05:19:39;11.10;87.10
37322;DHT22;23697;48.684;9.032;2023-05-07T05:22:05;11.20;87.00
37322;DHT22;23697;48.684;9.032;2023-05-07T05:24:32;11.40;87.00
37322;DHT22;23697;48.684;9.032;2023-05-07T05:26:59;11.50;87.00
37322;DHT22;23697;48.684;9.032;2023-05-07T05:29:32;11.60;86.90
37322;DHT22;23697;48.684;9.032;2023-05-07T05:31:59;11.80;86.90
37322;DHT22;23697;48.684;9.032;2023-05-07T05:34:27;12.00;86.80
37322;DHT22;23697;48.684;9.032;2023-05-07T05:36:54;12.10;86.70
37322;DHT22;23697;48.684;9.032;2023-05-07T05:39:24;12.20;86.40
37322;DHT22;23697;48.684;9.032;2023-05-07T05:41:51;12.40;86.20
37322;DHT22;23697;48.684;9.032;2023-05-07T05:44:18;12.50;86.10
37322;DHT22;23697;48.684;9.032;2023-05-07T05:46:46;12.50;85.90
37322;DHT22;23697;48.684;9.032;2023-05-07T05:49:14;12.60;85.70
37322;DHT22;23697;48.684;9.032;2023-05-07T05:51:43;12.60;85.10
37322;DHT22;23697;48.684;9.032;2023-05-07T05:54:09;12.60;85.10
37322;DHT22;23697;48.684;9.032;2023-05-07T05:56:36;12.60;85.30
37322;DHT22;23697;48.684;9.032;2023-05-07T05:59:04;12.60;85.30
37322;DHT22;23697;48.684;9.032;2023-05-07T06:01:31;12.60;84.80
37322;DHT22;23697;48.684;9.032;2023-05-07T06:03:58;12.80;85.00
37322;DHT22;23697;48.684;9.032;2023-05-07T06:06:26;12.90;85.10
37322;DHT22;23697;48.684;9.032;2023-05-07T06:08:54;13.10;85.10
37322;DHT22;23697;48.684;9.032;2023-05-07T06:11:20;13.30;84.90
37322;DHT22;23697;48.684;9.032;2023-05-07T06:13:47;13.40;84.20
37322;DHT22;23697;48.684;9.032;2023-05-07T06:16:14;13.60;83.80
37322;DHT22;23697;48.684;9.032;2023-05-07T06:18:42;13.70;83.70
37322;DHT22;23697;48.684;9.032;2023-05-07T06:21:10;13.80;83.00
37322;DHT22;23697;48.684;9.032;2023-05-07T06:23:38;14.00;83.10
37322;DHT22;23697;48.684;9.032;2023-05-07T06:26:14;14.10;83.10
37322;DHT22;23697;48.684;9.032;2023-05-07T06:28:42;14.30;82.20
37322;DHT22;23697;48.684;9.032;2023-05-07T06:31:12;14.60;81.70
37322;DHT22;23697;48.684;9.032;2023-05-07T06:33:39;14.60;80.70
37322;DHT22;23697;48.684;9.032;2023-05-07T06:36:06;14.80;80.60
37322;DHT22;23697;48.684;9.032;2023-05-07T06:38:33;14.90;80.70
37322;DHT22;23697;48.684;9.032;2023-05-07T06:40:59;15.00;80.90
37322;DHT22;23697;48.684;9.032;2023-05-07T06:43:27;14.90;80.20
37322;DHT22;23697;48.684;9.032;2023-05-07T06:45:54;14.90;80.00
37322;DHT22;23697;48.684;9.032;2023-05-07T06:48:21;15.10;79.90
37322;DHT22;23697;48.684;9.032;2023-05-07T06:50:47;15.20;79.60
37322;DHT22;23697;48.684;9.032;2023-05-07T06:53:14;15.40;79.30
37322;DHT22;23697;48.684;9.032;2023-05-07T06:55:42;15.60;77.90
37322;DHT22;23697;48.684;9.032;2023-05-07T06:58:36;15.70;77.70
37322;DHT22;23697;48.684;9.032;2023-05-07T07:01:03;16.10;77.50
37322;DHT22;23697;48.684;9.032;2023-05-07T07:03:30;16.40;76.60
37322;DHT22;23697;48.684;9.032;2023-05-07T07:05:57;16.60;76.50
37322;DHT22;23697;48.684;9.032;2023-05-07T07:08:23;16.80;74.20
37322;DHT22;23697;48.684;9.032;2023-05-07T07:10:50;17.10;75.00
37322;DHT22;23697;48.684;9.032;2023-05-07T07:13:17;17.30;74.80
37322;DHT22;23697;48.684;9.032;2023-05-07T07:15:45;17.60;74.80
37322;DHT22;23697;48.684;9.032;2023-05-07T07:18:12;17.90;73.70
37322;DHT22;23697;48.684;9.032;2023-05-07T07:20:39;18.10;71.10
37322;DHT22;23697;48.684;9.032;2023-05-07T07:23:07;18.40;71.20
37322;DHT22;23697;48.684;9.032;2023-05-07T07:25:33;18.70;71.60
37322;DHT22;23697;48.684;9.032;2023-05-07T07:28:00;18.70;68.40
37322;DHT22;23697;48.684;9.032;2023-05-07T07:30:27;18.80;69.80
37322;DHT22;23697;48.684;9.032;2023-05-07T07:32:55;18.90;69.60
37322;DHT22;23697;48.684;9.032;2023-05-07T07:35:27;19.00;70.10
37322;DHT22;23697;48.684;9.032;2023-05-07T07:37:54;19.20;68.30
37322;DHT22;23697;48.684;9.032;2023-05-07T07:40:21;19.40;67.10
37322;DHT22;23697;48.684;9.032;2023-05-07T07:42:47;19.60;67.20
37322;DHT22;23697;48.684;9.032;2023-05-07T07:45:15;19.60;66.30
37322;DHT22;23697;48.684;9.032;2023-05-07T07:47:41;19.60;66.40
37322;DHT22;23697;48.684;9.032;2023-05-07T07:50:10;19.60;65.60
37322;DHT22;23697;48.684;9.032;2023-05-07T07:52:37;19.60;66.80
37322;DHT22;23697;48.684;9.032;2023-05-07T07:55:04;19.60;66.90
37322;DHT22;23697;48.684;9.032;2023-05-07T07:57:33;19.70;66.20
37322;DHT22;23697;48.684;9.032;2023-05-07T08:00:34;19.70;67.10
37322;DHT22;23697;48.684;9.032;2023-05-07T08:03:02;20.00;66.50
37322;DHT22;23697;48.684;9.032;2023-05-07T08:05:33;20.10;64.10
37322;DHT22;23697;48.684;9.032;2023-05-07T08:08:02;20.50;64.80
37322;DHT22;23697;48.684;9.032;2023-05-07T08:10:29;20.70;63.50
37322;DHT22;23697;48.684;9.032;2023-05-07T08:13:00;20.90;62.20
37322;DHT22;23697;48.684;9.032;2023-05-07T08:15:29;21.20;61.70
37322;DHT22;23697;48.684;9.032;2023-05-07T08:17:55;21.40;59.30
37322;DHT22;23697;48.684;9.032;2023-05-07T08:20:25;21.50;59.40
37322;DHT22;23697;48.684;9.032;2023-05-07T08:22:53;21.70;58.40
37322;DHT22;23697;48.684;9.032;2023-05-07T08:25:21;21.80;59.20
37322;DHT22;23697;48.684;9.032;2023-05-07T08:27:51;21.70;57.40
37322;DHT22;23697;48.684;9.032;2023-05-07T08:30:21;21.60;57.90
37322;DHT22;23697;48.684;9.032;2023-05-07T08:32:48;21.70;59.70
37322;DHT22;23697;48.684;9.032;2023-05-07T08:35:23;21.80;57.60
37322;DHT22;23697;48.684;9.032;2023-05-07T08:38:05;22.20;59.30
37322;DHT22;23697;48.684;9.032;2023-05-07T08:40:40;22.40;57.60
37322;DHT22;23697;48.684;9.032;2023-05-07T08:43:47;22.50;56.90
37322;DHT22;23697;48.684;9.032;2023-05-07T08:46:20;22.60;55.80
37322;DHT22;23697;48.684;9.032;2023-05-07T08:51:47;22.70;55.20
37322;DHT22;23697;48.684;9.032;2023-05-07T08:54:16;22.90;54.80
37322;DHT22;23697;48.684;9.032;2023-05-07T08:56:45;23.00;54.50
37322;DHT22;23697;48.684;9.032;2023-05-07T08:59:11;23.10;52.40
37322;DHT22;23697;48.684;9.032;2023-05-07T09:01:38;23.10;54.90
37322;DHT22;23697;48.684;9.032;2023-05-07T09:04:05;23.10;54.90
37322;DHT22;23697;48.684;9.032;2023-05-07T09:06:32;23.30;55.20
37322;DHT22;23697;48.684;9.032;2023-05-07T09:08:59;23.50;53.30
37322;DHT22;23697;48.684;9.032;2023-05-07T09:11:28;23.60;53.10
37322;DHT22;23697;48.684;9.032;2023-05-07T09:13:55;23.70;53.40
37322;DHT22;23697;48.684;9.032;2023-05-07T09:16:23;23.80;53.10
37322;DHT22;23697;48.684;9.032;2023-05-07T09:18:50;23.80;49.60
37322;DHT22;23697;48.684;9.032;2023-05-07T09:21:17;23.80;52.20
37322;DHT22;23697;48.684;9.032;2023-05-07T09:23:44;23.80;50.40
37322;DHT22;23697;48.684;9.032;2023-05-07T09:26:11;24.10;53.90
37322;DHT22;23697;48.684;9.032;2023-05-07T09:28:40;24.30;51.90
37322;DHT22;23697;48.684;9.032;2023-05-07T09:31:07;24.10;52.30
37322;DHT22;23697;48.684;9.032;2023-05-07T09:33:34;24.10;52.10
37322;DHT22;23697;48.684;9.032;2023-05-07T09:36:04;24.20;52.80
37322;DHT22;23697;48.684;9.032;2023-05-07T09:38:31;24.50;52.70
37322;DHT22;23697;48.684;9.032;2023-05-07T09:41:02;24.60;51.30
37322;DHT22;23697;48.684;9.032;2023-05-07T09:43:31;24.80;53.60
37322;DHT22;23697;48.684;9.032;2023-05-07T09:45:59;24.90;50.00
37322;DHT22;23697;48.684;9.032;2023-05-07T09:48:30;25.00;49.00
37322;DHT22;23697;48.684;9.032;2023-05-07T09:50:57;25.00;50.30
37322;DHT22;23697;48.684;9.032;2023-05-07T09:53:30;25.10;51.10
37322;DHT22;23697;48.684;9.032;2023-05-07T09:56:00;25.20;49.00
37322;DHT22;23697;48.684;9.032;2023-05-07T09:58:27;25.30;49.60
37322;DHT22;23697;48.684;9.032;2023-05-07T10:00:55;25.40;50.40
37322;DHT22;23697;48.684;9.032;2023-05-07T10:03:25;25.50;46.70
37322;DHT22;23697;48.684;9.032;2023-05-07T10:05:54;25.40;48.00
37322;DHT22;23697;48.684;9.032;2023-05-07T10:08:20;25.50;48.80
37322;DHT22;23697;48.684;9.032;2023-05-07T10:10:48;25.60;46.10
37322;DHT22;23697;48.684;9.032;2023-05-07T10:13:16;25.70;47.60
37322;DHT22;23697;48.684;9.032;2023-05-07T10:15:45;25.80;47.40
37322;DHT22;23697;48.684;9.032;2023-05-07T10:18:13;25.90;45.70
37322;DHT22;23697;48.684;9.032;2023-05-07T10:20:45;25.90;47.50
37322;DHT22;23697;48.684;9.032;2023-05-07T10:23:14;26.10;47.50
37322;DHT22;23697;48.684;9.032;2023-05-07T10:25:44;26.40;47.80
37322;DHT22;23697;48.684;9.032;2023-05-07T10:28:17;26.10;44.40
37322;DHT22;23697;48.684;9.032;2023-05-07T10:30:52;26.20;47.70
37322;DHT22;23697;48.684;9.032;2023-05-07T10:33:27;26.40;49.30
37322;DHT22;23697;48.684;9.032;2023-05-07T10:35:57;26.60;46.10
37322;DHT22;23697;48.684;9.032;2023-05-07T10:38:25;26.60;44.70
37322;DHT22;23697;48.684;9.032;2023-05-07T10:41:03;26.60;45.70
37322;DHT22;23697;48.684;9.032;2023-05-07T10:43:38;26.80;45.50
37322;DHT22;23697;48.684;9.032;2023-05-07T10:46:13;26.80;44.30
37322;DHT22;23697;48.684;9.032;2023-05-07T10:51:33;26.60;44.10
37322;DHT22;23697;48.684;9.032;2023-05-07T10:54:19;26.30;45.20
37322;DHT22;23697;48.684;9.032;2023-05-07T10:59:52;26.60;45.40
37322;DHT22;23697;48.684;9.032;2023-05-07T11:05:19;26.90;45.40
37322;DHT22;23697;48.684;9.032;2023-05-07T11:07:56;26.80;42.30
37322;DHT22;23697;48.684;9.032;2023-05-07T11:13:42;26.90;42.70
37322;DHT22;23697;48.684;9.032;2023-05-07T11:16:22;26.80;44.10
37322;DHT22;23697;48.684;9.032;2023-05-07T11:19:03;26.80;42.60
37322;DHT22;23697;48.684;9.032;2023-05-07T11:21:33;26.10;43.50
37322;DHT22;23697;48.684;9.032;2023-05-07T11:24:05;25.30;45.70
37322;DHT22;23697;48.684;9.032;2023-05-07T11:26:41;25.10;47.00
37322;DHT22;23697;48.684;9.032;2023-05-07T11:29:14;25.00;47.80
37322;DHT22;23697;48.684;9.032;2023-05-07T11:31:41;24.90;47.50
37322;DHT22;23697;48.684;9.032;2023-05-07T11:34:08;24.60;47.60
37322;DHT22;23697;48.684;9.032;2023-05-07T11:36:35;24.40;48.30
37322;DHT22;23697;48.684;9.032;2023-05-07T11:39:02;24.20;48.60
37322;DHT22;23697;48.684;9.032;2023-05-07T11:41:38;24.00;48.40
37322;DHT22;23697;48.684;9.032;2023-05-07T11:44:04;23.80;49.40
37322;DHT22;23697;48.684;9.032;2023-05-07T11:46:31;23.70;49.60
37322;DHT22;23697;48.684;9.032;2023-05-07T11:48:58;23.60;51.00
37322;DHT22;23697;48.684;9.032;2023-05-07T11:51:27;23.50;51.20
37322;DHT22;23697;48.684;9.032;2023-05-07T11:53:53;23.20;49.70
37322;DHT22;23697;48.684;9.032;2023-05-07T11:56:20;23.00;51.30
37322;DHT22;23697;48.684;9.032;2023-05-07T11:58:52;22.70;51.30
37322;DHT22;23697;48.684;9.032;2023-05-07T12:01:23;22.60;51.40
37322;DHT22;23697;48.684;9.032;2023-05-07T12:03:50;22.40;53.60
37322;DHT22;23697;48.684;9.032;2023-05-07T12:06:18;21.90;53.40
37322;DHT22;23697;48.684;9.032;2023-05-07T12:08:49;21.10;53.80
37322;DHT22;23697;48.684;9.032;2023-05-07T12:11:16;20.50;49.60
37322;DHT22;23697;48.684;9.032;2023-05-07T12:13:46;19.90;47.20
37322;DHT22;23697;48.684;9.032;2023-05-07T12:16:15;19.40;47.50
37322;DHT22;23697;48.684;9.032;2023-05-07T12:18:42;19.20;49.00
37322;DHT22;23697;48.684;9.032;2023-05-07T12:21:09;19.10;48.20
37322;DHT22;23697;48.684;9.032;2023-05-07T12:23:36;18.90;48.10
37322;DHT22;23697;48.684;9.032;2023-05-07T12:26:03;18.80;48.70
37322;DHT22;23697;48.684;9.032;2023-05-07T12:28:30;18.80;51.50
37322;DHT22;23697;48.684;9.032;2023-05-07T12:31:03;18.70;54.00
37322;DHT22;23697;48.684;9.032;2023-05-07T12:33:33;18.70;56.40
37322;DHT22;23697;48.684;9.032;2023-05-07T12:36:05;18.70;57.40
37322;DHT22;23697;48.684;9.032;2023-05-07T12:38:36;18.70;56.80
37322;DHT22;23697;48.684;9.032;2023-05-07T12:41:04;18.70;59.80
37322;DHT22;23697;48.684;9.032;2023-05-07T12:43:32;18.50;64.40
37322;DHT22;23697;48.684;9.032;2023-05-07T12:46:00;17.90;66.70
37322;DHT22;23697;48.684;9.032;2023-05-07T12:48:27;17.60;69.00
37322;DHT22;23697;48.684;9.032;2023-05-07T12:50:55;17.20;75.50
37322;DHT22;23697;48.684;9.032;2023-05-07T12:53:23;16.70;77.90
37322;DHT22;23697;48.684;9.032;2023-05-07T12:55:50;16.40;79.60
37322;DHT22;23697;48.684;9.032;2023-05-07T12:58:17;16.10;81.00
37322;DHT22;23697;48.684;9.032;2023-05-07T13:00:45;16.00;82.40
37322;DHT22;23697;48.684;9.032;2023-05-07T13:03:17;16.00;83.40
37322;DHT22;23697;48.684;9.032;2023-05-07T13:05:47;15.70;83.10
37322;DHT22;23697;48.684;9.032;2023-05-07T13:08:24;15.40;82.70
37322;DHT22;23697;48.684;9.032;2023-05-07T13:10:51;15.20;83.60
37322;DHT22;23697;48.684;9.032;2023-05-07T13:13:17;15.40;85.10
37322;DHT22;23697;48.684;9.032;2023-05-07T13:15:44;15.30;85.50
37322;DHT22;23697;48.684;9.032;2023-05-07T13:18:10;15.30;85.50
37322;DHT22;23697;48.684;9.032;2023-05-07T13:20:37;15.20;85.60
37322;DHT22;23697;48.684;9.032;2023-05-07T13:23:04;15.20;85.80
37322;DHT22;23697;48.684;9.032;2023-05-07T13:25:32;15.20;85.90
37322;DHT22;23697;48.684;9.032;2023-05-07T13:27:58;15.40;86.20
37322;DHT22;23697;48.684;9.032;2023-05-07T13:30:25;15.50;86.60
37322;DHT22;23697;48.684;9.032;2023-05-07T13:32:53;15.50;86.80
37322;DHT22;23697;48.684;9.032;2023-05-07T13:35:21;15.60;86.90
37322;DHT22;23697;48.684;9.032;2023-05-07T13:37:48;15.60;86.90
37322;DHT22;23697;48.684;9.032;2023-05-07T13:40:15;15.60;86.60
37322;DHT22;23697;48.684;9.032;2023-05-07T13:42:43;15.70;86.40
37322;DHT22;23697;48.684;9.032;2023-05-07T13:45:10;15.70;86.30
37322;DHT22;23697;48.684;9.032;2023-05-07T13:47:39;15.80;86.50
37322;DHT22;23697;48.684;9.032;2023-05-07T13:50:06;15.70;86.60
37322;DHT22;23697;48.684;9.032;2023-05-07T13:52:33;15.70;86.80
37322;DHT22;23697;48.684;9.032;2023-05-07T13:55:00;15.60;86.70
37322;DHT22;23697;48.684;9.032;2023-05-07T13:57:26;15.70;86.80
37322;DHT22;23697;48.684;9.032;2023-05-07T13:59:54;15.60;86.60
37322;DHT22;23697;48.684;9.032;2023-05-07T14:02:21;15.60;86.50
37322;DHT22;23697;48.684;9.032;2023-05-07T14:04:48;15.50;86.30
37322;DHT22;23697;48.684;9.032;2023-05-07T14:07:14;15.60;86.60
37322;DHT22;23697;48.684;9.032;2023-05-07T14:09:41;15.60;86.90
37322;DHT22;23697;48.684;9.032;2023-05-07T14:12:08;15.60;87.10
37322;DHT22;23697;48.684;9.032;2023-05-07T14:14:34;15.50;87.00
37322;DHT22;23697;48.684;9.032;2023-05-07T14:17:02;15.50;86.90
37322;DHT22;23697;48.684;9.032;2023-05-07T14:19:29;15.60;86.90
37322;DHT22;23697;48.684;9.032;2023-05-07T14:21:56;15.50;86.80
37322;DHT22;23697;48.684;9.032;2023-05-07T14:24:23;15.60;86.90
37322;DHT22;23697;48.684;9.032;2023-05-07T14:26:50;15.50;86.70
37322;DHT22;23697;48.684;9.032;2023-05-07T14:29:17;15.40;86.60
37322;DHT22;23697;48.684;9.032;2023-05-07T14:31:44;15.40;86.60
37322;DHT22;23697;48.684;9.032;2023-05-07T14:34:12;15.30;86.30
37322;DHT22;23697;48.684;9.032;2023-05-07T14:36:39;15.40;86.80
37322;DHT22;23697;48.684;9.032;2023-05-07T14:39:05;15.30;86.60
37322;DHT22;23697;48.684;9.032;2023-05-07T14:41:32;15.40;86.80
37322;DHT22;23697;48.684;9.032;2023-05-07T14:43:58;15.30;86.50
37322;DHT22;23697;48.684;9.032;2023-05-07T14:46:25;15.20;86.60
37322;DHT22;23697;48.684;9.032;2023-05-07T14:48:52;15.30;86.80
37322;DHT22;23697;48.684;9.032;2023-05-07T14:51:20;15.30;86.90
37322;DHT22;23697;48.684;9.032;2023-05-07T14:53:47;15.40;87.00
37322;DHT22;23697;48.684;9.032;2023-05-07T14:56:13;15.50;87.10
37322;DHT22;23697;48.684;9.032;2023-05-07T14:58:40;15.50;87.10
37322;DHT22;23697;48.684;9.032;2023-05-07T15:01:07;15.60;87.20
37322;DHT22;23697;48.684;9.032;2023-05-07T15:03:33;15.60;87.30
37322;DHT22;23697;48.684;9.032;2023-05-07T15:06:01;15.60;87.00
37322;DHT22;23697;48.684;9.032;2023-05-07T15:08:29;15.60;86.90
37322;DHT22;23697;48.684;9.032;2023-05-07T15:10:55;15.50;86.80
37322;DHT22;23697;48.684;9.032;2023-05-07T15:13:22;15.40;86.90
37322;DHT22;23697;48.684;9.032;2023-05-07T15:15:49;15.40;87.00
37322;DHT22;23697;48.684;9.032;2023-05-07T15:18:15;15.40;87.10
37322;DHT22;23697;48.684;9.032;2023-05-07T15:20:42;15.50;87.20
37322;DHT22;23697;48.684;9.032;2023-05-07T15:23:09;15.50;87.30
37322;DHT22;23697;48.684;9.032;2023-05-07T15:25:38;15.70;87.50
37322;DHT22;23697;48.684;9.032;2023-05-07T15:28:05;15.80;87.70
37322;DHT22;23697;48.684;9.032;2023-05-07T15:30:32;15.80;87.60
37322;DHT22;23697;48.684;9.032;2023-05-07T15:32:59;16.00;87.60
37322;DHT22;23697;48.684;9.032;2023-05-07T15:35:25;16.00;87.30
37322;DHT22;23697;48.684;9.032;2023-05-07T15:37:52;16.00;87.10
37322;DHT22;23697;48.684;9.032;2023-05-07T15:40:19;16.10;87.20
37322;DHT22;23697;48.684;9.032;2023-05-07T15:42:47;16.20;86.80
37322;DHT22;23697;48.684;9.032;2023-05-07T15:45:14;16.20;86.40
37322;DHT22;23697;48.684;9.032;2023-05-07T15:47:40;16.30;86.40
37322;DHT22;23697;48.684;9.032;2023-05-07T15:50:07;16.30;86.50
37322;DHT22;23697;48.684;9.032;2023-05-07T15:52:34;16.50;86.70
37322;DHT22;23697;48.684;9.032;2023-05-07T15:55:00;16.60;86.90
37322;DHT22;23697;48.684;9.032;2023-05-07T15:57:28;16.70;86.90
37322;DHT22;23697;48.684;9.032;2023-05-07T15:59:56;16.70;86.70
37322;DHT22;23697;48.684;9.032;2023-05-07T16:02:23;16.70;86.40
37322;DHT22;23697;48.684;9.032;2023-05-07T16:04:50;16.80;86.40